sensor_id;sensor_type;location;lat;lon;timestamp;pressure;altitude;pressure_sealevel;temperature;humidity
6218;BME280;3142;48.206;11.550;2023-04-09T00:00:09;96357.28;;;6.86;80.21
6218;BME280;3142;48.206;11.550;2023-04-09T00:02:36;96353.56;;;6.88;80.63
6218;BME280;3142;48.206;11.550;2023-04-09T00:05:03;96358.75;;;6.88;80.27
6218;BME280;3142;48.206;11.550;2023-04-09T00:07:31;96352.09;;;6.86;79.80
6218;BME280;3142;48.206;11.550;2023-04-09T00:09:57;96346.88;;;6.86;80.63
6218;BME280;3142;48.206;11.550;2023-04-09T00:12:24;96349.16;;;6.89;80.93
6218;BME280;3142;48.206;11.550;2023-04-09T00:14:50;96342.00;;;6.91;80.77
6218;BME280;3142;48.206;11.550;2023-04-09T00:17:17;96345.25;;;6.93;80.86
6218;BME280;3142;48.206;11.550;2023-04-09T00:19:43;96344.44;;;6.92;80.45
6218;BME280;3142;48.206;11.550;2023-04-09T00:22:09;96339.72;;;6.96;80.23
6218;BME280;3142;48.206;11.550;2023-04-09T00:24:37;96341.19;;;6.98;81.21
6218;BME280;3142;48.206;11.550;2023-04-09T00:27:04;96338.75;;;6.97;80.69
6218;BME280;3142;48.206;11.550;2023-04-09T00:29:30;96337.28;;;6.94;80.53
6218;BME280;3142;48.206;11.550;2023-04-09T00:31:57;96334.69;;;6.94;81.27
6218;BME280;3142;48.206;11.550;2023-04-09T00:34:23;96342.16;;;6.97;80.93
6218;BME280;3142;48.206;11.550;2023-04-09T00:36:50;96334.38;;;6.97;80.97
6218;BME280;3142;48.206;11.550;2023-04-09T00:39:16;96331.13;;;6.95;80.92
6218;BME280;3142;48.206;11.550;2023-04-09T00:41:44;96332.44;;;6.99;80.83
6218;BME280;3142;48.206;11.550;2023-04-09T00:44:11;96340.53;;;6.96;79.99
6218;BME280;3142;48.206;11.550;2023-04-09T00:46:37;96337.13;;;6.96;80.00
6218;BME280;3142;48.206;11.550;2023-04-09T00:49:04;96336.47;;;6.94;80.29
6218;BME280;3142;48.206;11.550;2023-04-09T00:51:30;96334.19;;;6.99;80.46
6218;BME280;3142;48.206;11.550;2023-04-09T00:53:57;96329.69;;;7.01;80.70
6218;BME280;3142;48.206;11.550;2023-04-09T00:56:24;96332.91;;;7.03;80.00
6218;BME280;3142;48.206;11.550;2023-04-09T00:58:53;96331.47;;;7.00;80.48
6218;BME280;3142;48.206;11.550;2023-04-09T01:01:19;96336.97;;;6.97;80.71
6218;BME280;3142;48.206;11.550;2023-04-09T01:03:46;96335.34;;;6.96;80.84
6218;BME280;3142;48.206;11.550;2023-04-09T01:06:17;96336.81;;;6.99;80.92
6218;BME280;3142;48.206;11.550;2023-04-09T01:08:51;96331.47;;;7.00;81.15
6218;BME280;3142;48.206;11.550;2023-04-09T01:11:24;96323.50;;;7.02;80.26
6218;BME280;3142;48.206;11.550;2023-04-09T01:14:00;96326.25;;;7.00;80.58
6218;BME280;3142;48.206;11.550;2023-04-09T01:16:31;96333.75;;;7.03;80.57
6218;BME280;3142;48.206;11.550;2023-04-09T01:19:04;96322.50;;;7.03;80.81
6218;BME280;3142;48.206;11.550;2023-04-09T01:21:34;96330.50;;;7.01;80.61
6218;BME280;3142;48.206;11.550;2023-04-09T01:24:08;96331.94;;;7.04;80.65
6218;BME280;3142;48.206;11.550;2023-04-09T01:26:53;96320.56;;;7.05;80.02
6218;BME280;3142;48.206;11.550;2023-04-09T01:29:24;96321.72;;;7.02;80.41
6218;BME280;3142;48.206;11.550;2023-04-09T01:31:53;96323.66;;;7.00;80.36
6218;BME280;3142;48.206;11.550;2023-04-09T01:34:21;96326.41;;;6.99;80.47
6218;BME280;3142;48.206;11.550;2023-04-09T01:36:49;96332.44;;;6.99;79.84
6218;BME280;3142;48.206;11.550;2023-04-09T01:39:17;96329.97;;;6.98;79.97
6218;BME280;3142;48.206;11.550;2023-04-09T01:41:44;96334.38;;;6.97;79.65
6218;BME280;3142;48.206;11.550;2023-04-09T01:44:12;96332.44;;;6.99;79.71
6218;BME280;3142;48.206;11.550;2023-04-09T01:46:40;96339.28;;;7.00;79.15
6218;BME280;3142;48.206;11.550;2023-04-09T01:49:08;96330.78;;;6.98;79.07
6218;BME280;3142;48.206;11.550;2023-04-09T01:51:36;96340.91;;;7.01;79.10
6218;BME280;3142;48.206;11.550;2023-04-09T01:54:03;96325.59;;;6.98;79.42
6218;BME280;3142;48.206;11.550;2023-04-09T01:56:39;96329.84;;;6.99;78.41
6218;BME280;3142;48.206;11.550;2023-04-09T01:59:05;96328.06;;;7.00;78.38
6218;BME280;3142;48.206;11.550;2023-04-09T02:01:34;96333.38;;;6.98;77.94
6218;BME280;3142;48.206;11.550;2023-04-09T02:04:09;96336.34;;;7.03;77.92
6218;BME280;3142;48.206;11.550;2023-04-09T02:06:39;96331.63;;;7.07;77.94
6218;BME280;3142;48.206;11.550;2023-04-09T02:09:08;96332.91;;;7.03;78.04
6218;BME280;3142;48.206;11.550;2023-04-09T02:11:36;96328.88;;;7.00;78.51
6218;BME280;3142;48.206;11.550;2023-04-09T02:14:03;96328.19;;;6.98;78.05
6218;BME280;3142;48.206;11.550;2023-04-09T02:16:33;96336.66;;;7.00;78.17
6218;BME280;3142;48.206;11.550;2023-04-09T02:19:00;96337.78;;;6.98;78.67
6218;BME280;3142;48.206;11.550;2023-04-09T02:21:28;96332.44;;;6.99;78.01
6218;BME280;3142;48.206;11.550;2023-04-09T02:23:55;96331.59;;;6.99;78.08
6218;BME280;3142;48.206;11.550;2023-04-09T02:26:22;96331.13;;;6.95;78.85
6218;BME280;3142;48.206;11.550;2023-04-09T02:28:49;96326.88;;;6.94;78.90
6218;BME280;3142;48.206;11.550;2023-04-09T02:31:16;96326.25;;;6.92;78.50
6218;BME280;3142;48.206;11.550;2023-04-09T02:33:42;96328.34;;;6.89;78.34
6218;BME280;3142;48.206;11.550;2023-04-09T02:36:10;96329.81;;;6.91;78.65
6218;BME280;3142;48.206;11.550;2023-04-09T02:38:40;96330.16;;;6.88;79.10
6218;BME280;3142;48.206;11.550;2023-04-09T02:41:07;96319.25;;;6.93;78.50
6218;BME280;3142;48.206;11.550;2023-04-09T02:43:33;96329.66;;;6.93;79.17
6218;BME280;3142;48.206;11.550;2023-04-09T02:45:59;96334.19;;;6.99;78.67
6218;BME280;3142;48.206;11.550;2023-04-09T02:48:26;96333.72;;;6.95;79.14
6218;BME280;3142;48.206;11.550;2023-04-09T02:50:53;96324.13;;;6.96;78.74
6218;BME280;3142;48.206;11.550;2023-04-09T02:53:19;96328.84;;;6.92;78.81
6218;BME280;3142;48.206;11.550;2023-04-09T02:55:47;96321.69;;;6.86;79.10
6218;BME280;3142;48.206;11.550;2023-04-09T02:58:14;96316.63;;;6.84;79.07
6218;BME280;3142;48.206;11.550;2023-04-09T03:00:41;96321.03;;;6.84;79.57
6218;BME280;3142;48.206;11.550;2023-04-09T03:03:08;96310.47;;;6.86;79.26
6218;BME280;3142;48.206;11.550;2023-04-09T03:05:34;96311.94;;;6.88;79.25
6218;BME280;3142;48.206;11.550;2023-04-09T03:08:02;96310.47;;;6.86;79.06
6218;BME280;3142;48.206;11.550;2023-04-09T03:10:28;96303.97;;;6.81;79.51
6218;BME280;3142;48.206;11.550;2023-04-09T03:12:56;96296.34;;;6.88;79.39
6218;BME280;3142;48.206;11.550;2023-04-09T03:15:22;96310.00;;;6.90;79.27
6218;BME280;3142;48.206;11.550;2023-04-09T03:17:49;96306.41;;;6.83;79.84
6218;BME280;3142;48.206;11.550;2023-04-09T03:20:15;96313.06;;;6.77;79.91
6218;BME280;3142;48.206;11.550;2023-04-09T03:22:41;96316.00;;;6.74;79.74
6218;BME280;3142;48.206;11.550;2023-04-09T03:25:08;96311.44;;;6.76;79.73
6218;BME280;3142;48.206;11.550;2023-04-09T03:27:34;96303.31;;;6.79;80.51
6218;BME280;3142;48.206;11.550;2023-04-09T03:30:03;96309.81;;;6.83;79.92
6218;BME280;3142;48.206;11.550;2023-04-09T03:32:29;96310.13;;;6.80;80.54
6218;BME280;3142;48.206;11.550;2023-04-09T03:34:56;96328.00;;;6.67;80.62
6218;BME280;3142;48.206;11.550;2023-04-09T03:37:22;96322.78;;;6.59;80.54
6218;BME280;3142;48.206;11.550;2023-04-09T03:39:48;96323.28;;;6.63;80.68
6218;BME280;3142;48.206;11.550;2023-04-09T03:42:15;96326.50;;;6.57;80.56
6218;BME280;3142;48.206;11.550;2023-04-09T03:44:41;96330.06;;;6.56;80.65
6218;BME280;3142;48.206;11.550;2023-04-09T03:47:09;96327.63;;;6.54;80.38
6218;BME280;3142;48.206;11.550;2023-04-09T03:49:35;96330.88;;;6.56;79.82
6218;BME280;3142;48.206;11.550;2023-04-09T03:52:02;96331.84;;;6.47;80.17
6218;BME280;3142;48.206;11.550;2023-04-09T03:54:28;96334.56;;;6.37;80.51
6218;BME280;3142;48.206;11.550;2023-04-09T03:56:55;96339.13;;;6.43;80.11
6218;BME280;3142;48.206;11.550;2023-04-09T03:59:22;96337.66;;;6.41;79.86
6218;BME280;3142;48.206;11.550;2023-04-09T04:01:48;96344.31;;;6.35;79.87
6218;BME280;3142;48.206;11.550;2023-04-09T04:04:17;96341.88;;;6.34;79.43
6218;BME280;3142;48.206;11.550;2023-04-09T04:06:43;96344.94;;;6.29;79.84
6218;BME280;3142;48.206;11.550;2023-04-09T04:09:09;96349.16;;;6.22;79.72
6218;BME280;3142;48.206;11.550;2023-04-09T04:11:36;96347.16;;;6.16;79.96
6218;BME280;3142;48.206;11.550;2023-04-09T04:14:02;96345.69;;;6.13;79.78
6218;BME280;3142;48.206;11.550;2023-04-09T04:16:29;96348.28;;;6.13;80.16
6218;BME280;3142;48.206;11.550;2023-04-09T04:18:56;96344.91;;;6.21;79.98
6218;BME280;3142;48.206;11.550;2023-04-09T04:21:24;96342.47;;;6.19;80.31
6218;BME280;3142;48.206;11.550;2023-04-09T04:23:51;96341.03;;;6.17;79.79
6218;BME280;3142;48.206;11.550;2023-04-09T04:26:17;96340.03;;;6.18;79.87
6218;BME280;3142;48.206;11.550;2023-04-09T04:28:44;96343.28;;;6.20;79.81
6218;BME280;3142;48.206;11.550;2023-04-09T04:31:11;96343.91;;;6.14;79.76
6218;BME280;3142;48.206;11.550;2023-04-09T04:33:38;96350.38;;;6.10;79.88
6218;BME280;3142;48.206;11.550;2023-04-09T04:36:06;96348.91;;;6.07;79.69
6218;BME280;3142;48.206;11.550;2023-04-09T04:38:35;96347.28;;;6.06;80.12
6218;BME280;3142;48.206;11.550;2023-04-09T04:41:02;96341.44;;;6.04;79.80
6218;BME280;3142;48.206;11.550;2023-04-09T04:43:28;96345.66;;;6.05;79.73
6218;BME280;3142;48.206;11.550;2023-04-09T04:45:55;96344.69;;;6.06;80.14
6218;BME280;3142;48.206;11.550;2023-04-09T04:48:21;96344.84;;;6.05;79.91
6218;BME280;3142;48.206;11.550;2023-04-09T04:50:55;96338.16;;;6.02;80.33
6218;BME280;3142;48.206;11.550;2023-04-09T04:53:22;96340.81;;;6.10;80.54
6218;BME280;3142;48.206;11.550;2023-04-09T04:55:49;96330.97;;;6.22;79.95
6218;BME280;3142;48.206;11.550;2023-04-09T04:58:16;96340.56;;;6.30;79.81
6218;BME280;3142;48.206;11.550;2023-04-09T05:00:42;96343.00;;;6.31;79.64
6218;BME280;3142;48.206;11.550;2023-04-09T05:03:09;96347.09;;;6.34;79.19
6218;BME280;3142;48.206;11.550;2023-04-09T05:05:36;96346.91;;;6.35;79.14
6218;BME280;3142;48.206;11.550;2023-04-09T05:08:02;96356.94;;;6.30;79.23
6218;BME280;3142;48.206;11.550;2023-04-09T05:10:29;96357.28;;;6.27;79.45
6218;BME280;3142;48.206;11.550;2023-04-09T05:12:57;96361.47;;;6.20;79.41
6218;BME280;3142;48.206;11.550;2023-04-09T05:15:23;96363.44;;;6.18;80.00
6218;BME280;3142;48.206;11.550;2023-04-09T05:17:49;96369.06;;;6.13;79.64
6218;BME280;3142;48.206;11.550;2023-04-09T05:20:16;96366.63;;;6.12;80.00
6218;BME280;3142;48.206;11.550;2023-04-09T05:22:42;96372.31;;;6.15;79.99
6218;BME280;3142;48.206;11.550;2023-04-09T05:25:09;96375.59;;;6.17;79.55
6218;BME280;3142;48.206;11.550;2023-04-09T05:27:35;96380.78;;;6.17;79.77
6218;BME280;3142;48.206;11.550;2023-04-09T05:30:03;96387.13;;;6.23;79.84
6218;BME280;3142;48.206;11.550;2023-04-09T05:32:30;96388.94;;;6.22;79.86
6218;BME280;3142;48.206;11.550;2023-04-09T05:34:56;96382.09;;;6.21;79.98
6218;BME280;3142;48.206;11.550;2023-04-09T05:37:23;96381.44;;;6.19;79.52
6218;BME280;3142;48.206;11.550;2023-04-09T05:39:49;96382.75;;;6.23;79.92
6218;BME280;3142;48.206;11.550;2023-04-09T05:42:16;96380.31;;;6.22;79.76
6218;BME280;3142;48.206;11.550;2023-04-09T05:44:42;96384.38;;;6.24;79.46
6218;BME280;3142;48.206;11.550;2023-04-09T05:47:10;96385.69;;;6.29;79.40
6218;BME280;3142;48.206;11.550;2023-04-09T05:49:36;96381.50;;;6.36;79.26
6218;BME280;3142;48.206;11.550;2023-04-09T05:52:03;96387.19;;;6.39;78.75
6218;BME280;3142;48.206;11.550;2023-04-09T05:54:29;96374.56;;;6.44;79.21
6218;BME280;3142;48.206;11.550;2023-04-09T05:56:56;96378.94;;;6.44;78.85
6218;BME280;3142;48.206;11.550;2023-04-09T05:59:22;96371.28;;;6.42;78.89
6218;BME280;3142;48.206;11.550;2023-04-09T06:01:49;96376.31;;;6.44;79.08
6218;BME280;3142;48.206;11.550;2023-04-09T06:04:16;96375.03;;;6.40;78.88
6218;BME280;3142;48.206;11.550;2023-04-09T06:06:43;96377.94;;;6.37;78.71
6218;BME280;3142;48.206;11.550;2023-04-09T06:09:10;96365.59;;;6.39;79.00
6218;BME280;3142;48.206;11.550;2023-04-09T06:11:36;96371.22;;;6.60;78.13
6218;BME280;3142;48.206;11.550;2023-04-09T06:14:03;96375.28;;;6.63;78.13
6218;BME280;3142;48.206;11.550;2023-04-09T06:16:29;96383.56;;;6.58;77.51
6218;BME280;3142;48.206;11.550;2023-04-09T06:18:56;96388.88;;;6.57;77.85
6218;BME280;3142;48.206;11.550;2023-04-09T06:21:23;96385.84;;;6.61;77.82
6218;BME280;3142;48.206;11.550;2023-04-09T06:23:50;96390.22;;;6.69;78.42
6218;BME280;3142;48.206;11.550;2023-04-09T06:26:17;96398.22;;;6.75;77.48
6218;BME280;3142;48.206;11.550;2023-04-09T06:28:43;96394.81;;;6.75;77.34
6218;BME280;3142;48.206;11.550;2023-04-09T06:31:10;96391.09;;;6.86;77.06
6218;BME280;3142;48.206;11.550;2023-04-09T06:33:36;96399.72;;;6.94;74.96
6218;BME280;3142;48.206;11.550;2023-04-09T06:36:03;96390.00;;;7.04;74.24
6218;BME280;3142;48.206;11.550;2023-04-09T06:38:32;96392.59;;;7.21;73.38
6218;BME280;3142;48.206;11.550;2023-04-09T06:40:59;96399.78;;;7.43;73.50
6218;BME280;3142;48.206;11.550;2023-04-09T06:43:25;96392.09;;;7.66;72.38
6218;BME280;3142;48.206;11.550;2023-04-09T06:45:51;96393.41;;;7.86;71.59
6218;BME280;3142;48.206;11.550;2023-04-09T06:48:18;96385.66;;;8.17;71.28
6218;BME280;3142;48.206;11.550;2023-04-09T06:50:44;96393.78;;;8.39;68.38
6218;BME280;3142;48.206;11.550;2023-04-09T06:53:11;96386.53;;;8.57;68.43
6218;BME280;3142;48.206;11.550;2023-04-09T06:55:38;96386.53;;;8.88;66.75
6218;BME280;3142;48.206;11.550;2023-04-09T06:58:05;96386.75;;;9.09;66.08
6218;BME280;3142;48.206;11.550;2023-04-09T07:00:31;96393.91;;;9.53;65.38
6218;BME280;3142;48.206;11.550;2023-04-09T07:02:58;96400.47;;;9.87;62.85
6218;BME280;3142;48.206;11.550;2023-04-09T07:05:24;96396.81;;;10.10;61.87
6218;BME280;3142;48.206;11.550;2023-04-09T07:07:51;96391.72;;;10.47;61.11
6218;BME280;3142;48.206;11.550;2023-04-09T07:10:17;96395.81;;;10.85;60.31
6218;BME280;3142;48.206;11.550;2023-04-09T07:12:45;96395.06;;;11.27;59.16
6218;BME280;3142;48.206;11.550;2023-04-09T07:15:11;96384.69;;;11.62;58.34
6218;BME280;3142;48.206;11.550;2023-04-09T07:17:38;96391.25;;;12.01;57.42
6218;BME280;3142;48.206;11.550;2023-04-09T07:20:05;96391.50;;;12.40;55.31
6218;BME280;3142;48.206;11.550;2023-04-09T07:22:32;96391.28;;;12.35;53.05
6218;BME280;3142;48.206;11.550;2023-04-09T07:24:58;96399.72;;;12.31;53.31
6218;BME280;3142;48.206;11.550;2023-04-09T07:27:25;96397.66;;;12.61;52.61
6218;BME280;3142;48.206;11.550;2023-04-09T07:29:55;96391.25;;;13.24;51.43
6218;BME280;3142;48.206;11.550;2023-04-09T07:32:22;96395.97;;;13.69;49.92
6218;BME280;3142;48.206;11.550;2023-04-09T07:34:50;96391.31;;;13.90;47.84
6218;BME280;3142;48.206;11.550;2023-04-09T07:37:16;96393.13;;;14.03;47.81
6218;BME280;3142;48.206;11.550;2023-04-09T07:39:43;96385.38;;;14.41;47.18
6218;BME280;3142;48.206;11.550;2023-04-09T07:42:09;96391.66;;;14.54;45.96
6218;BME280;3142;48.206;11.550;2023-04-09T07:44:36;96389.00;;;14.67;46.29
6218;BME280;3142;48.206;11.550;2023-04-09T07:47:05;96382.34;;;15.34;44.93
6218;BME280;3142;48.206;11.550;2023-04-09T07:49:32;96375.31;;;15.59;45.13
6218;BME280;3142;48.206;11.550;2023-04-09T07:51:58;96379.00;;;16.26;43.10
6218;BME280;3142;48.206;11.550;2023-04-09T07:54:25;96371.66;;;16.10;41.46
6218;BME280;3142;48.206;11.550;2023-04-09T07:56:52;96380.69;;;15.78;41.09
6218;BME280;3142;48.206;11.550;2023-04-09T07:59:19;96379.94;;;15.89;41.35
6218;BME280;3142;48.206;11.550;2023-04-09T08:01:45;96385.44;;;16.12;41.64
6218;BME280;3142;48.206;11.550;2023-04-09T08:04:13;96380.16;;;16.74;40.77
6218;BME280;3142;48.206;11.550;2023-04-09T08:06:39;96381.28;;;16.41;39.57
6218;BME280;3142;48.206;11.550;2023-04-09T08:09:06;96381.31;;;15.98;40.38
6218;BME280;3142;48.206;11.550;2023-04-09T08:11:32;96395.31;;;14.39;43.18
6218;BME280;3142;48.206;11.550;2023-04-09T08:13:59;96390.09;;;13.80;44.31
6218;BME280;3142;48.206;11.550;2023-04-09T08:16:28;96394.75;;;13.64;44.89
6218;BME280;3142;48.206;11.550;2023-04-09T08:18:55;96396.25;;;14.65;44.71
6218;BME280;3142;48.206;11.550;2023-04-09T08:21:23;96390.00;;;16.05;43.18
6218;BME280;3142;48.206;11.550;2023-04-09T08:23:49;96387.63;;;17.13;41.80
6218;BME280;3142;48.206;11.550;2023-04-09T08:26:16;96395.41;;;17.68;39.48
6218;BME280;3142;48.206;11.550;2023-04-09T08:28:42;96393.34;;;17.94;39.06
6218;BME280;3142;48.206;11.550;2023-04-09T08:31:09;96398.09;;;18.03;37.79
6218;BME280;3142;48.206;11.550;2023-04-09T08:33:35;96389.09;;;18.04;37.98
6218;BME280;3142;48.206;11.550;2023-04-09T08:36:07;96395.34;;;17.57;37.70
6218;BME280;3142;48.206;11.550;2023-04-09T08:38:34;96395.56;;;17.67;38.32
6218;BME280;3142;48.206;11.550;2023-04-09T08:41:01;96396.69;;;17.47;37.36
6218;BME280;3142;48.206;11.550;2023-04-09T08:43:28;96392.22;;;18.13;36.63
6218;BME280;3142;48.206;11.550;2023-04-09T08:45:55;96396.63;;;18.66;35.80
6218;BME280;3142;48.206;11.550;2023-04-09T08:48:23;96402.47;;;18.45;35.60
6218;BME280;3142;48.206;11.550;2023-04-09T08:50:50;96412.38;;;18.49;36.38
6218;BME280;3142;48.206;11.550;2023-04-09T08:53:16;96419.06;;;18.17;36.91
6218;BME280;3142;48.206;11.550;2023-04-09T08:55:47;96405.19;;;16.90;38.07
6218;BME280;3142;48.206;11.550;2023-04-09T08:58:14;96417.16;;;16.30;39.73
6218;BME280;3142;48.206;11.550;2023-04-09T09:00:40;96423.63;;;16.78;40.27
6218;BME280;3142;48.206;11.550;2023-04-09T09:03:08;96414.91;;;17.56;39.77
6218;BME280;3142;48.206;11.550;2023-04-09T09:05:36;96411.00;;;18.47;38.62
6218;BME280;3142;48.206;11.550;2023-04-09T09:08:03;96409.03;;;18.54;36.59
6218;BME280;3142;48.206;11.550;2023-04-09T09:10:39;96407.09;;;18.26;36.61
6218;BME280;3142;48.206;11.550;2023-04-09T09:13:17;96418.06;;;18.64;36.89
6218;BME280;3142;48.206;11.550;2023-04-09T09:15:43;96413.38;;;17.90;36.59
6218;BME280;3142;48.206;11.550;2023-04-09T09:18:12;96406.81;;;16.29;37.99
6218;BME280;3142;48.206;11.550;2023-04-09T09:20:38;96423.59;;;15.91;39.67
6218;BME280;3142;48.206;11.550;2023-04-09T09:23:05;96414.38;;;16.00;39.30
6218;BME280;3142;48.206;11.550;2023-04-09T09:25:37;96420.72;;;14.78;41.80
6218;BME280;3142;48.206;11.550;2023-04-09T09:28:07;96420.03;;;14.18;42.76
6218;BME280;3142;48.206;11.550;2023-04-09T09:30:36;96417.00;;;14.15;43.21
6218;BME280;3142;48.206;11.550;2023-04-09T09:33:05;96422.59;;;14.71;43.58
6218;BME280;3142;48.206;11.550;2023-04-09T09:35:48;96417.34;;;14.65;44.51
6218;BME280;3142;48.206;11.550;2023-04-09T09:38:16;96415.78;;;15.08;44.19
6218;BME280;3142;48.206;11.550;2023-04-09T09:40:42;96415.81;;;15.40;43.65
6218;BME280;3142;48.206;11.550;2023-04-09T09:43:09;96421.44;;;15.50;43.24
6218;BME280;3142;48.206;11.550;2023-04-09T09:45:37;96413.25;;;15.20;43.20
6218;BME280;3142;48.206;11.550;2023-04-09T09:48:04;96416.00;;;15.00;42.49
6218;BME280;3142;48.206;11.550;2023-04-09T09:50:33;96420.41;;;15.06;41.97
6218;BME280;3142;48.206;11.550;2023-04-09T09:53:03;96411.94;;;16.24;41.13
6218;BME280;3142;48.206;11.550;2023-04-09T09:55:31;96415.16;;;16.08;40.38
6218;BME280;3142;48.206;11.550;2023-04-09T09:58:01;96427.78;;;14.91;42.16
6218;BME280;3142;48.206;11.550;2023-04-09T10:00:31;96430.38;;;14.00;43.65
6218;BME280;3142;48.206;11.550;2023-04-09T10:03:12;96416.75;;;14.36;43.12
6218;BME280;3142;48.206;11.550;2023-04-09T10:05:40;96420.00;;;14.25;43.92
6218;BME280;3142;48.206;11.550;2023-04-09T10:08:07;96419.44;;;14.03;45.15
6218;BME280;3142;48.206;11.550;2023-04-09T10:10:35;96419.22;;;14.11;45.50
6218;BME280;3142;48.206;11.550;2023-04-09T10:13:05;96412.97;;;13.73;44.85
6218;BME280;3142;48.206;11.550;2023-04-09T10:15:32;96421.44;;;14.28;43.58
6218;BME280;3142;48.206;11.550;2023-04-09T10:18:00;96416.41;;;13.73;44.51
6218;BME280;3142;48.206;11.550;2023-04-09T10:20:31;96416.94;;;14.61;43.56
6218;BME280;3142;48.206;11.550;2023-04-09T10:23:02;96418.16;;;14.39;43.48
6218;BME280;3142;48.206;11.550;2023-04-09T10:25:31;96419.81;;;14.40;44.32
6218;BME280;3142;48.206;11.550;2023-04-09T10:27:58;96414.16;;;14.16;43.85
6218;BME280;3142;48.206;11.550;2023-04-09T10:30:31;96417.22;;;13.80;45.78
6218;BME280;3142;48.206;11.550;2023-04-09T10:33:08;96416.59;;;13.58;46.17
6218;BME280;3142;48.206;11.550;2023-04-09T10:35:35;96413.72;;;13.33;46.67
6218;BME280;3142;48.206;11.550;2023-04-09T10:38:02;96418.19;;;12.85;47.30
6218;BME280;3142;48.206;11.550;2023-04-09T10:40:29;96418.50;;;12.62;46.72
6218;BME280;3142;48.206;11.550;2023-04-09T10:42:56;96424.09;;;12.59;47.26
6218;BME280;3142;48.206;11.550;2023-04-09T10:45:23;96419.94;;;12.71;46.77
6218;BME280;3142;48.206;11.550;2023-04-09T10:47:50;96417.66;;;13.03;46.72
6218;BME280;3142;48.206;11.550;2023-04-09T10:50:19;96419.66;;;13.01;48.09
6218;BME280;3142;48.206;11.550;2023-04-09T10:52:50;96423.53;;;14.97;45.35
6218;BME280;3142;48.206;11.550;2023-04-09T10:55:32;96412.91;;;15.48;43.47
6218;BME280;3142;48.206;11.550;2023-04-09T10:57:59;96411.91;;;14.53;44.89
6218;BME280;3142;48.206;11.550;2023-04-09T11:00:25;96417.19;;;14.20;46.43
6218;BME280;3142;48.206;11.550;2023-04-09T11:03:20;96418.00;;;14.20;46.26
6218;BME280;3142;48.206;11.550;2023-04-09T11:05:50;96412.56;;;13.89;46.39
6218;BME280;3142;48.206;11.550;2023-04-09T11:08:18;96406.66;;;13.54;46.92
6218;BME280;3142;48.206;11.550;2023-04-09T11:10:46;96411.69;;;13.42;46.76
6218;BME280;3142;48.206;11.550;2023-04-09T11:13:13;96410.25;;;13.20;46.07
6218;BME280;3142;48.206;11.550;2023-04-09T11:15:40;96407.97;;;13.10;46.22
6218;BME280;3142;48.206;11.550;2023-04-09T11:18:07;96407.19;;;13.16;46.90
6218;BME280;3142;48.206;11.550;2023-04-09T11:20:34;96402.66;;;13.78;47.49
6218;BME280;3142;48.206;11.550;2023-04-09T11:23:02;96400.38;;;14.34;45.66
6218;BME280;3142;48.206;11.550;2023-04-09T11:25:30;96398.38;;;15.39;43.14
6218;BME280;3142;48.206;11.550;2023-04-09T11:27:57;96396.22;;;15.23;43.20
6218;BME280;3142;48.206;11.550;2023-04-09T11:30:24;96401.69;;;14.76;43.79
6218;BME280;3142;48.206;11.550;2023-04-09T11:32:51;96400.59;;;14.39;42.95
6218;BME280;3142;48.206;11.550;2023-04-09T11:35:19;96400.41;;;13.94;43.33
6218;BME280;3142;48.206;11.550;2023-04-09T11:37:46;96407.88;;;13.51;44.30
6218;BME280;3142;48.206;11.550;2023-04-09T11:40:16;96411.44;;;13.17;43.38
6218;BME280;3142;48.206;11.550;2023-04-09T11:42:43;96411.84;;;12.73;44.41
6218;BME280;3142;48.206;11.550;2023-04-09T11:45:11;96419.91;;;12.65;45.25
6218;BME280;3142;48.206;11.550;2023-04-09T11:47:38;96413.72;;;12.44;45.77
6218;BME280;3142;48.206;11.550;2023-04-09T11:50:07;96422.50;;;12.58;47.40
6218;BME280;3142;48.206;11.550;2023-04-09T11:52:34;96420.59;;;12.45;47.30
6218;BME280;3142;48.206;11.550;2023-04-09T11:55:00;96427.53;;;12.53;47.01
6218;BME280;3142;48.206;11.550;2023-04-09T11:57:40;96422.88;;;12.49;46.83
6218;BME280;3142;48.206;11.550;2023-04-09T12:00:09;96425.09;;;12.52;46.64
6218;BME280;3142;48.206;11.550;2023-04-09T12:02:37;96422.50;;;12.58;46.42
6218;BME280;3142;48.206;11.550;2023-04-09T12:05:06;96428.13;;;12.55;46.50
6218;BME280;3142;48.206;11.550;2023-04-09T12:07:32;96425.25;;;12.43;47.24
6218;BME280;3142;48.206;11.550;2023-04-09T12:12:29;96425.97;;;12.31;47.32
6218;BME280;3142;48.206;11.550;2023-04-09T12:14:57;96423.25;;;12.18;47.07
6218;BME280;3142;48.206;11.550;2023-04-09T12:17:23;96420.56;;;12.39;48.23
6218;BME280;3142;48.206;11.550;2023-04-09T12:19:50;96415.13;;;12.75;48.59
6218;BME280;3142;48.206;11.550;2023-04-09T12:22:16;96418.78;;;13.42;47.64
6218;BME280;3142;48.206;11.550;2023-04-09T12:24:43;96411.13;;;13.67;47.09
6218;BME280;3142;48.206;11.550;2023-04-09T12:27:09;96415.78;;;13.58;48.06
6218;BME280;3142;48.206;11.550;2023-04-09T12:29:36;96413.31;;;13.37;46.41
6218;BME280;3142;48.206;11.550;2023-04-09T12:32:04;96421.50;;;13.07;47.65
6218;BME280;3142;48.206;11.550;2023-04-09T12:34:30;96415.84;;;13.03;48.23
6218;BME280;3142;48.206;11.550;2023-04-09T12:36:57;96410.38;;;13.05;47.59
6218;BME280;3142;48.206;11.550;2023-04-09T12:39:23;96413.63;;;13.07;48.37
6218;BME280;3142;48.206;11.550;2023-04-09T12:41:50;96413.81;;;13.05;47.46
6218;BME280;3142;48.206;11.550;2023-04-09T12:44:18;96410.47;;;13.18;48.01
6218;BME280;3142;48.206;11.550;2023-04-09T12:46:45;96412.06;;;13.26;47.11
6218;BME280;3142;48.206;11.550;2023-04-09T12:49:13;96406.66;;;13.54;45.75
6218;BME280;3142;48.206;11.550;2023-04-09T12:51:39;96404.88;;;13.74;45.59
6218;BME280;3142;48.206;11.550;2023-04-09T12:54:06;96400.63;;;13.80;46.78
6218;BME280;3142;48.206;11.550;2023-04-09T12:56:32;96409.91;;;13.49;47.06
6218;BME280;3142;48.206;11.550;2023-04-09T12:58:58;96408.00;;;13.17;47.71
6218;BME280;3142;48.206;11.550;2023-04-09T13:01:26;96404.63;;;12.75;47.89
6218;BME280;3142;48.206;11.550;2023-04-09T13:03:52;96408.69;;;12.43;48.67
6218;BME280;3142;48.206;11.550;2023-04-09T13:06:20;96403.44;;;12.43;49.58
6218;BME280;3142;48.206;11.550;2023-04-09T13:08:47;96412.09;;;12.37;49.44
6218;BME280;3142;48.206;11.550;2023-04-09T13:11:13;96403.47;;;12.50;49.43
6218;BME280;3142;48.206;11.550;2023-04-09T13:13:40;96399.31;;;12.62;49.22
6218;BME280;3142;48.206;11.550;2023-04-09T13:16:07;96408.16;;;12.54;49.88
6218;BME280;3142;48.206;11.550;2023-04-09T13:18:33;96407.03;;;12.35;49.39
6218;BME280;3142;48.206;11.550;2023-04-09T13:21:00;96407.72;;;12.16;48.87